sensor_id;sensor_type;location;lat;lon;timestamp;P1;durP1;ratioP1;P2;durP2;ratioP2
53052;SDS011;38934;52.690;6.184;2023-01-08T00:01:14;5.00;;;3.70;;
53052;SDS011;38934;52.690;6.184;2023-01-08T00:03:40;4.38;;;3.33;;
53052;SDS011;38934;52.690;6.184;2023-01-08T00:08:36;6.25;;;3.97;;
53052;SDS011;38934;52.690;6.184;2023-01-08T00:11:01;4.20;;;3.70;;
53052;SDS011;38934;52.690;6.184;2023-01-08T00:13:27;7.40;;;3.72;;
53052;SDS011;38934;52.690;6.184;2023-01-08T00:19:32;5.50;;;4.20;;
53052;SDS011;38934;52.690;6.184;2023-01-08T00:22:06;4.88;;;3.83;;
53052;SDS011;38934;52.690;6.184;2023-01-08T00:24:38;5.15;;;3.75;;
53052;SDS011;38934;52.690;6.184;2023-01-08T00:27:03;5.15;;;4.20;;
53052;SDS011;38934;52.690;6.184;2023-01-08T00:29:29;4.90;;;3.70;;
53052;SDS011;38934;52.690;6.184;2023-01-08T00:31:55;5.57;;;3.60;;
53052;SDS011;38934;52.690;6.184;2023-01-08T00:37:18;5.30;;;3.80;;
53052;SDS011;38934;52.690;6.184;2023-01-08T00:42:32;4.15;;;3.53;;
53052;SDS011;38934;52.690;6.184;2023-01-08T00:45:11;4.90;;;2.92;;
53052;SDS011;38934;52.690;6.184;2023-01-08T00:47:43;5.35;;;2.50;;
53052;SDS011;38934;52.690;6.184;2023-01-08T00:50:09;3.88;;;3.00;;
53052;SDS011;38934;52.690;6.184;2023-01-08T00:52:35;3.28;;;2.60;;
53052;SDS011;38934;52.690;6.184;2023-01-08T00:55:00;3.53;;;2.00;;
53052;SDS011;38934;52.690;6.184;2023-01-08T00:57:30;3.03;;;1.90;;
53052;SDS011;38934;52.690;6.184;2023-01-08T01:02:49;3.58;;;1.98;;
53052;SDS011;38934;52.690;6.184;2023-01-08T01:05:15;3.00;;;1.75;;
53052;SDS011;38934;52.690;6.184;2023-01-08T01:07:42;6.07;;;2.20;;
53052;SDS011;38934;52.690;6.184;2023-01-08T01:10:09;2.17;;;1.55;;
53052;SDS011;38934;52.690;6.184;2023-01-08T01:12:39;5.53;;;1.80;;
53052;SDS011;38934;52.690;6.184;2023-01-08T01:15:07;5.28;;;1.75;;
53052;SDS011;38934;52.690;6.184;2023-01-08T01:17:36;4.32;;;1.63;;
53052;SDS011;38934;52.690;6.184;2023-01-08T01:20:06;4.38;;;1.80;;
53052;SDS011;38934;52.690;6.184;2023-01-08T01:22:33;3.22;;;1.63;;
53052;SDS011;38934;52.690;6.184;2023-01-08T01:24:59;5.40;;;1.70;;
53052;SDS011;38934;52.690;6.184;2023-01-08T01:27:30;5.10;;;1.90;;
53052;SDS011;38934;52.690;6.184;2023-01-08T01:30:04;6.78;;;1.70;;
53052;SDS011;38934;52.690;6.184;2023-01-08T01:32:38;6.07;;;1.70;;
53052;SDS011;38934;52.690;6.184;2023-01-08T01:35:04;6.32;;;1.92;;
53052;SDS011;38934;52.690;6.184;2023-01-08T01:37:30;5.65;;;1.60;;
53052;SDS011;38934;52.690;6.184;2023-01-08T01:39:57;7.38;;;2.17;;
53052;SDS011;38934;52.690;6.184;2023-01-08T01:45:30;4.03;;;1.80;;
53052;SDS011;38934;52.690;6.184;2023-01-08T01:48:03;9.63;;;2.35;;
53052;SDS011;38934;52.690;6.184;2023-01-08T01:53:36;6.55;;;2.00;;
53052;SDS011;38934;52.690;6.184;2023-01-08T01:58:50;6.70;;;2.08;;
53052;SDS011;38934;52.690;6.184;2023-01-08T02:01:32;9.68;;;2.08;;
53052;SDS011;38934;52.690;6.184;2023-01-08T02:03:58;6.75;;;1.90;;
53052;SDS011;38934;52.690;6.184;2023-01-08T02:06:34;9.02;;;2.00;;
53052;SDS011;38934;52.690;6.184;2023-01-08T02:12:14;6.78;;;1.75;;
53052;SDS011;38934;52.690;6.184;2023-01-08T02:14:47;7.10;;;1.67;;
53052;SDS011;38934;52.690;6.184;2023-01-08T02:17:23;7.75;;;2.13;;
53052;SDS011;38934;52.690;6.184;2023-01-08T02:20:02;7.95;;;2.10;;
53052;SDS011;38934;52.690;6.184;2023-01-08T02:22:45;6.65;;;1.90;;
53052;SDS011;38934;52.690;6.184;2023-01-08T02:28:05;7.57;;;2.05;;
53052;SDS011;38934;52.690;6.184;2023-01-08T02:30:35;6.07;;;2.15;;
53052;SDS011;38934;52.690;6.184;2023-01-08T02:33:06;6.30;;;2.15;;
53052;SDS011;38934;52.690;6.184;2023-01-08T02:35:33;6.70;;;2.00;;
53052;SDS011;38934;52.690;6.184;2023-01-08T02:38:15;6.40;;;2.10;;
53052;SDS011;38934;52.690;6.184;2023-01-08T02:40:52;6.13;;;2.03;;
53052;SDS011;38934;52.690;6.184;2023-01-08T02:43:40;5.95;;;2.08;;
53052;SDS011;38934;52.690;6.184;2023-01-08T02:46:10;9.30;;;2.85;;
53052;SDS011;38934;52.690;6.184;2023-01-08T02:51:31;3.75;;;2.15;;
53052;SDS011;38934;52.690;6.184;2023-01-08T02:54:05;7.57;;;2.70;;
53052;SDS011;38934;52.690;6.184;2023-01-08T02:56:43;5.55;;;2.30;;
53052;SDS011;38934;52.690;6.184;2023-01-08T02:59:21;3.47;;;2.20;;
53052;SDS011;38934;52.690;6.184;2023-01-08T03:01:49;5.47;;;3.00;;
53052;SDS011;38934;52.690;6.184;2023-01-08T03:04:36;4.65;;;2.72;;
53052;SDS011;38934;52.690;6.184;2023-01-08T03:07:19;7.30;;;2.85;;
53052;SDS011;38934;52.690;6.184;2023-01-08T03:09:45;3.83;;;2.90;;
53052;SDS011;38934;52.690;6.184;2023-01-08T03:12:18;6.22;;;3.05;;
53052;SDS011;38934;52.690;6.184;2023-01-08T03:20:49;6.18;;;3.10;;
53052;SDS011;38934;52.690;6.184;2023-01-08T03:25:42;5.53;;;3.67;;
53052;SDS011;38934;52.690;6.184;2023-01-08T03:28:12;7.50;;;3.95;;
53052;SDS011;38934;52.690;6.184;2023-01-08T03:31:00;6.70;;;3.53;;
53052;SDS011;38934;52.690;6.184;2023-01-08T03:33:27;3.63;;;3.20;;
53052;SDS011;38934;52.690;6.184;2023-01-08T03:36:06;7.68;;;3.67;;
53052;SDS011;38934;52.690;6.184;2023-01-08T03:38:35;6.13;;;4.03;;
53052;SDS011;38934;52.690;6.184;2023-01-08T03:41:05;5.07;;;3.58;;
53052;SDS011;38934;52.690;6.184;2023-01-08T03:43:53;6.53;;;4.10;;
53052;SDS011;38934;52.690;6.184;2023-01-08T03:46:32;5.38;;;3.00;;
53052;SDS011;38934;52.690;6.184;2023-01-08T03:49:01;5.80;;;3.50;;
53052;SDS011;38934;52.690;6.184;2023-01-08T03:51:37;6.40;;;3.47;;
53052;SDS011;38934;52.690;6.184;2023-01-08T03:54:18;7.05;;;3.58;;
53052;SDS011;38934;52.690;6.184;2023-01-08T03:59:36;5.50;;;3.45;;
53052;SDS011;38934;52.690;6.184;2023-01-08T04:04:46;5.22;;;3.50;;
53052;SDS011;38934;52.690;6.184;2023-01-08T04:07:12;6.65;;;3.58;;
53052;SDS011;38934;52.690;6.184;2023-01-08T04:09:38;8.27;;;3.55;;
53052;SDS011;38934;52.690;6.184;2023-01-08T04:12:04;4.65;;;3.28;;
53052;SDS011;38934;52.690;6.184;2023-01-08T04:14:30;5.20;;;3.10;;
53052;SDS011;38934;52.690;6.184;2023-01-08T04:16:56;6.63;;;3.40;;
53052;SDS011;38934;52.690;6.184;2023-01-08T04:19:21;4.35;;;2.85;;
53052;SDS011;38934;52.690;6.184;2023-01-08T04:21:50;4.20;;;2.92;;
53052;SDS011;38934;52.690;6.184;2023-01-08T04:24:16;3.40;;;3.05;;
53052;SDS011;38934;52.690;6.184;2023-01-08T04:26:42;5.38;;;3.30;;
53052;SDS011;38934;52.690;6.184;2023-01-08T04:29:08;4.55;;;3.28;;
53052;SDS011;38934;52.690;6.184;2023-01-08T04:31:34;4.43;;;3.10;;
53052;SDS011;38934;52.690;6.184;2023-01-08T04:37:22;4.85;;;3.00;;
53052;SDS011;38934;52.690;6.184;2023-01-08T04:39:56;6.32;;;2.90;;
53052;SDS011;38934;52.690;6.184;2023-01-08T04:42:21;4.22;;;3.20;;
53052;SDS011;38934;52.690;6.184;2023-01-08T04:47:43;3.75;;;2.75;;
53052;SDS011;38934;52.690;6.184;2023-01-08T04:50:18;5.68;;;3.10;;
53052;SDS011;38934;52.690;6.184;2023-01-08T04:52:57;5.57;;;3.17;;
53052;SDS011;38934;52.690;6.184;2023-01-08T04:55:24;4.75;;;2.78;;
53052;SDS011;38934;52.690;6.184;2023-01-08T04:58:06;3.75;;;2.58;;
53052;SDS011;38934;52.690;6.184;2023-01-08T05:00:32;5.88;;;3.00;;
53052;SDS011;38934;52.690;6.184;2023-01-08T05:02:58;4.15;;;2.75;;
53052;SDS011;38934;52.690;6.184;2023-01-08T05:05:24;5.68;;;3.13;;
53052;SDS011;38934;52.690;6.184;2023-01-08T05:07:49;3.60;;;2.50;;
53052;SDS011;38934;52.690;6.184;2023-01-08T05:10:15;5.22;;;2.80;;
53052;SDS011;38934;52.690;6.184;2023-01-08T05:12:41;4.30;;;2.90;;
53052;SDS011;38934;52.690;6.184;2023-01-08T05:15:08;3.75;;;2.85;;
53052;SDS011;38934;52.690;6.184;2023-01-08T05:20:22;3.80;;;3.00;;
53052;SDS011;38934;52.690;6.184;2023-01-08T05:25:46;5.78;;;3.28;;
53052;SDS011;38934;52.690;6.184;2023-01-08T05:28:12;4.35;;;3.40;;
53052;SDS011;38934;52.690;6.184;2023-01-08T05:30:37;6.78;;;3.30;;
53052;SDS011;38934;52.690;6.184;2023-01-08T05:33:03;4.15;;;3.50;;
53052;SDS011;38934;52.690;6.184;2023-01-08T05:35:37;5.65;;;3.63;;
53052;SDS011;38934;52.690;6.184;2023-01-08T05:41:23;5.30;;;3.40;;
53052;SDS011;38934;52.690;6.184;2023-01-08T05:43:51;5.45;;;3.75;;
53052;SDS011;38934;52.690;6.184;2023-01-08T05:46:16;5.35;;;3.30;;
53052;SDS011;38934;52.690;6.184;2023-01-08T05:48:42;7.40;;;3.63;;
53052;SDS011;38934;52.690;6.184;2023-01-08T05:53:52;5.20;;;3.22;;
53052;SDS011;38934;52.690;6.184;2023-01-08T05:56:18;5.97;;;3.97;;
53052;SDS011;38934;52.690;6.184;2023-01-08T05:58:43;6.13;;;3.50;;
53052;SDS011;38934;52.690;6.184;2023-01-08T06:01:20;6.13;;;3.72;;
53052;SDS011;38934;52.690;6.184;2023-01-08T06:03:46;7.68;;;3.58;;
53052;SDS011;38934;52.690;6.184;2023-01-08T06:06:12;5.13;;;3.30;;
53052;SDS011;38934;52.690;6.184;2023-01-08T06:08:39;5.28;;;3.35;;
53052;SDS011;38934;52.690;6.184;2023-01-08T06:11:06;5.25;;;3.00;;
53052;SDS011;38934;52.690;6.184;2023-01-08T06:13:40;6.72;;;3.58;;
53052;SDS011;38934;52.690;6.184;2023-01-08T06:16:14;6.85;;;3.22;;
53052;SDS011;38934;52.690;6.184;2023-01-08T06:18:41;5.30;;;3.17;;
53052;SDS011;38934;52.690;6.184;2023-01-08T06:21:15;5.55;;;2.85;;
53052;SDS011;38934;52.690;6.184;2023-01-08T06:23:47;7.28;;;3.05;;
53052;SDS011;38934;52.690;6.184;2023-01-08T06:26:13;7.25;;;3.03;;
53052;SDS011;38934;52.690;6.184;2023-01-08T06:28:43;4.72;;;2.65;;
53052;SDS011;38934;52.690;6.184;2023-01-08T06:31:09;4.03;;;2.67;;
53052;SDS011;38934;52.690;6.184;2023-01-08T06:33:34;5.32;;;2.58;;
53052;SDS011;38934;52.690;6.184;2023-01-08T06:36:01;6.00;;;2.50;;
53052;SDS011;38934;52.690;6.184;2023-01-08T06:38:32;6.35;;;2.90;;
53052;SDS011;38934;52.690;6.184;2023-01-08T06:41:06;5.95;;;2.30;;
53052;SDS011;38934;52.690;6.184;2023-01-08T06:43:34;5.68;;;2.22;;
53052;SDS011;38934;52.690;6.184;2023-01-08T06:48:32;4.03;;;2.05;;
53052;SDS011;38934;52.690;6.184;2023-01-08T06:51:05;6.38;;;2.33;;
53052;SDS011;38934;52.690;6.184;2023-01-08T06:53:30;5.77;;;2.30;;
53052;SDS011;38934;52.690;6.184;2023-01-08T06:55:57;4.68;;;2.15;;
53052;SDS011;38934;52.690;6.184;2023-01-08T06:58:26;6.65;;;2.28;;
53052;SDS011;38934;52.690;6.184;2023-01-08T07:00:52;6.47;;;2.35;;
53052;SDS011;38934;52.690;6.184;2023-01-08T07:03:17;4.85;;;2.03;;
53052;SDS011;38934;52.690;6.184;2023-01-08T07:05:43;6.50;;;2.15;;
53052;SDS011;38934;52.690;6.184;2023-01-08T07:08:17;7.47;;;2.70;;
53052;SDS011;38934;52.690;6.184;2023-01-08T07:10:43;4.88;;;2.35;;
53052;SDS011;38934;52.690;6.184;2023-01-08T07:13:09;4.70;;;2.05;;
53052;SDS011;38934;52.690;6.184;2023-01-08T07:15:36;5.57;;;2.10;;
53052;SDS011;38934;52.690;6.184;2023-01-08T07:18:03;4.35;;;2.00;;
53052;SDS011;38934;52.690;6.184;2023-01-08T07:20:30;8.15;;;2.30;;
53052;SDS011;38934;52.690;6.184;2023-01-08T07:23:02;4.88;;;2.35;;
53052;SDS011;38934;52.690;6.184;2023-01-08T07:25:29;6.82;;;2.90;;
53052;SDS011;38934;52.690;6.184;2023-01-08T07:28:00;8.25;;;2.90;;
53052;SDS011;38934;52.690;6.184;2023-01-08T07:30:26;6.93;;;2.38;;
53052;SDS011;38934;52.690;6.184;2023-01-08T07:33:07;4.93;;;2.50;;
53052;SDS011;38934;52.690;6.184;2023-01-08T07:38:21;6.75;;;2.97;;
53052;SDS011;38934;52.690;6.184;2023-01-08T07:40:47;7.95;;;2.72;;
53052;SDS011;38934;52.690;6.184;2023-01-08T07:43:13;7.82;;;3.08;;
53052;SDS011;38934;52.690;6.184;2023-01-08T07:48:56;6.95;;;2.60;;
53052;SDS011;38934;52.690;6.184;2023-01-08T07:53:54;6.45;;;2.67;;
53052;SDS011;38934;52.690;6.184;2023-01-08T07:59:20;4.47;;;2.45;;
53052;SDS011;38934;52.690;6.184;2023-01-08T08:01:45;5.45;;;2.75;;
53052;SDS011;38934;52.690;6.184;2023-01-08T08:07:13;8.00;;;2.47;;
53052;SDS011;38934;52.690;6.184;2023-01-08T08:12:23;5.25;;;2.10;;
53052;SDS011;38934;52.690;6.184;2023-01-08T08:14:49;5.38;;;2.63;;
53052;SDS011;38934;52.690;6.184;2023-01-08T08:17:17;5.45;;;2.25;;
53052;SDS011;38934;52.690;6.184;2023-01-08T08:19:42;3.78;;;2.33;;
53052;SDS011;38934;52.690;6.184;2023-01-08T08:22:16;7.00;;;2.30;;
53052;SDS011;38934;52.690;6.184;2023-01-08T08:24:44;5.10;;;2.45;;
53052;SDS011;38934;52.690;6.184;2023-01-08T08:27:17;8.80;;;2.50;;
53052;SDS011;38934;52.690;6.184;2023-01-08T08:32:08;6.97;;;2.30;;
53052;SDS011;38934;52.690;6.184;2023-01-08T08:34:34;6.85;;;2.85;;
53052;SDS011;38934;52.690;6.184;2023-01-08T08:36:59;6.45;;;2.33;;
53052;SDS011;38934;52.690;6.184;2023-01-08T08:39:26;7.10;;;2.28;;
53052;SDS011;38934;52.690;6.184;2023-01-08T08:44:36;7.53;;;2.33;;
53052;SDS011;38934;52.690;6.184;2023-01-08T08:47:05;7.80;;;2.40;;
53052;SDS011;38934;52.690;6.184;2023-01-08T08:49:32;4.47;;;2.30;;
53052;SDS011;38934;52.690;6.184;2023-01-08T08:52:02;7.68;;;2.72;;
53052;SDS011;38934;52.690;6.184;2023-01-08T08:54:30;5.68;;;2.45;;
53052;SDS011;38934;52.690;6.184;2023-01-08T08:56:56;6.60;;;2.50;;
53052;SDS011;38934;52.690;6.184;2023-01-08T08:59:22;3.25;;;2.28;;
53052;SDS011;38934;52.690;6.184;2023-01-08T09:01:48;6.20;;;2.40;;
53052;SDS011;38934;52.690;6.184;2023-01-08T09:04:14;8.80;;;2.20;;
53052;SDS011;38934;52.690;6.184;2023-01-08T09:06:41;3.58;;;2.10;;
53052;SDS011;38934;52.690;6.184;2023-01-08T09:15:06;5.97;;;2.35;;
53052;SDS011;38934;52.690;6.184;2023-01-08T09:17:37;7.72;;;2.30;;
53052;SDS011;38934;52.690;6.184;2023-01-08T09:23:03;7.55;;;2.50;;
53052;SDS011;38934;52.690;6.184;2023-01-08T09:28:32;3.78;;;2.20;;
53052;SDS011;38934;52.690;6.184;2023-01-08T09:31:02;10.27;;;4.38;;
53052;SDS011;38934;52.690;6.184;2023-01-08T09:33:28;5.35;;;2.30;;
53052;SDS011;38934;52.690;6.184;2023-01-08T09:36:37;4.70;;;2.00;;
53052;SDS011;38934;52.690;6.184;2023-01-08T09:39:08;2.65;;;1.80;;
53052;SDS011;38934;52.690;6.184;2023-01-08T09:41:45;6.68;;;2.10;;
53052;SDS011;38934;52.690;6.184;2023-01-08T09:44:19;5.97;;;2.00;;
53052;SDS011;38934;52.690;6.184;2023-01-08T09:46:53;8.00;;;2.60;;
53052;SDS011;38934;52.690;6.184;2023-01-08T09:49:35;10.80;;;2.53;;
53052;SDS011;38934;52.690;6.184;2023-01-08T09:52:09;5.57;;;2.00;;
53052;SDS011;38934;52.690;6.184;2023-01-08T09:54:44;5.55;;;2.10;;
53052;SDS011;38934;52.690;6.184;2023-01-08T09:57:15;4.38;;;1.75;;
53052;SDS011;38934;52.690;6.184;2023-01-08T09:59:43;7.75;;;1.98;;
53052;SDS011;38934;52.690;6.184;2023-01-08T10:02:16;7.70;;;2.28;;
53052;SDS011;38934;52.690;6.184;2023-01-08T10:07:38;6.43;;;2.28;;
53052;SDS011;38934;52.690;6.184;2023-01-08T10:12:58;7.35;;;2.33;;
53052;SDS011;38934;52.690;6.184;2023-01-08T10:15:33;6.47;;;2.00;;
53052;SDS011;38934;52.690;6.184;2023-01-08T10:20:49;8.82;;;2.10;;
53052;SDS011;38934;52.690;6.184;2023-01-08T10:27:07;8.60;;;1.95;;
53052;SDS011;38934;52.690;6.184;2023-01-08T10:29:37;5.82;;;2.13;;
53052;SDS011;38934;52.690;6.184;2023-01-08T10:44:30;7.00;;;1.90;;
53052;SDS011;38934;52.690;6.184;2023-01-08T10:47:12;9.40;;;2.40;;
53052;SDS011;38934;52.690;6.184;2023-01-08T10:52:58;9.15;;;2.25;;
53052;SDS011;38934;52.690;6.184;2023-01-08T10:58:42;10.02;;;2.30;;
53052;SDS011;38934;52.690;6.184;2023-01-08T11:01:09;10.85;;;2.70;;
53052;SDS011;38934;52.690;6.184;2023-01-08T11:10:42;9.52;;;2.45;;
53052;SDS011;38934;52.690;6.184;2023-01-08T11:13:55;7.72;;;2.20;;
53052;SDS011;38934;52.690;6.184;2023-01-08T11:17:16;9.38;;;2.60;;
53052;SDS011;38934;52.690;6.184;2023-01-08T11:22:37;9.57;;;2.75;;
53052;SDS011;38934;52.690;6.184;2023-01-08T11:25:26;9.45;;;2.70;;
53052;SDS011;38934;52.690;6.184;2023-01-08T11:27:55;6.15;;;2.75;;
53052;SDS011;38934;52.690;6.184;2023-01-08T11:39:29;6.50;;;2.85;;
53052;SDS011;38934;52.690;6.184;2023-01-08T11:42:02;5.90;;;2.80;;
53052;SDS011;38934;52.690;6.184;2023-01-08T11:54:13;11.15;;;2.90;;
53052;SDS011;38934;52.690;6.184;2023-01-08T12:03:45;10.47;;;3.37;;
53052;SDS011;38934;52.690;6.184;2023-01-08T12:11:53;8.52;;;2.42;;
53052;SDS011;38934;52.690;6.184;2023-01-08T12:17:57;9.40;;;2.63;;
53052;SDS011;38934;52.690;6.184;2023-01-08T12:20:45;6.50;;;2.40;;
53052;SDS011;38934;52.690;6.184;2023-01-08T12:29:18;8.52;;;2.80;;
53052;SDS011;38934;52.690;6.184;2023-01-08T12:35:10;7.18;;;2.63;;
53052;SDS011;38934;52.690;6.184;2023-01-08T12:42:47;6.50;;;2.50;;
53052;SDS011;38934;52.690;6.184;2023-01-08T12:45:16;13.43;;;3.40;;
53052;SDS011;38934;52.690;6.184;2023-01-08T12:47:51;10.00;;;2.38;;
53052;SDS011;38934;52.690;6.184;2023-01-08T13:01:25;7.30;;;3.05;;
53052;SDS011;38934;52.690;6.184;2023-01-08T13:04:05;8.63;;;2.10;;
53052;SDS011;38934;52.690;6.184;2023-01-08T13:12:05;7.43;;;2.10;;
53052;SDS011;38934;52.690;6.184;2023-01-08T13:14:38;5.40;;;2.03;;
53052;SDS011;38934;52.690;6.184;2023-01-08T13:17:17;5.90;;;2.13;;
53052;SDS011;38934;52.690;6.184;2023-01-08T13:33:22;5.25;;;2.42;;
53052;SDS011;38934;52.690;6.184;2023-01-08T13:41:35;5.45;;;1.90;;
53052;SDS011;38934;52.690;6.184;2023-01-08T13:46:52;2.67;;;1.73;;
53052;SDS011;38934;52.690;6.184;2023-01-08T13:55:13;6.00;;;1.70;;
53052;SDS011;38934;52.690;6.184;2023-01-08T13:57:43;4.20;;;1.70;;
53052;SDS011;38934;52.690;6.184;2023-01-08T14:06:14;2.95;;;1.63;;
53052;SDS011;38934;52.690;6.184;2023-01-08T14:08:58;3.28;;;1.65;;
53052;SDS011;38934;52.690;6.184;2023-01-08T14:17:13;2.92;;;1.65;;
53052;SDS011;38934;52.690;6.184;2023-01-08T14:19:54;4.78;;;1.95;;
53052;SDS011;38934;52.690;6.184;2023-01-08T14:22:30;11.32;;;6.18;;
53052;SDS011;38934;52.690;6.184;2023-01-08T14:25:00;5.43;;;2.55;;
53052;SDS011;38934;52.690;6.184;2023-01-08T14:27:28;6.05;;;2.67;;
53052;SDS011;38934;52.690;6.184;2023-01-08T14:29:55;6.55;;;3.35;;
53052;SDS011;38934;52.690;6.184;2023-01-08T14:32:22;3.55;;;2.50;;
53052;SDS011;38934;52.690;6.184;2023-01-08T14:34:57;4.47;;;1.88;;
53052;SDS011;38934;52.690;6.184;2023-01-08T14:37:25;2.90;;;1.75;;
53052;SDS011;38934;52.690;6.184;2023-01-08T14:42:37;3.97;;;2.30;;
53052;SDS011;38934;52.690;6.184;2023-01-08T14:45:20;3.33;;;1.63;;
53052;SDS011;38934;52.690;6.184;2023-01-08T14:47:52;3.53;;;1.80;;
53052;SDS011;38934;52.690;6.184;2023-01-08T14:50:30;4.97;;;2.80;;
53052;SDS011;38934;52.690;6.184;2023-01-08T14:53:04;2.47;;;2.10;;
53052;SDS011;38934;52.690;6.184;2023-01-08T14:55:34;2.25;;;1.75;;
53052;SDS011;38934;52.690;6.184;2023-01-08T14:58:07;2.40;;;2.00;;
53052;SDS011;38934;52.690;6.184;2023-01-08T15:07:04;2.63;;;1.50;;
53052;SDS011;38934;52.690;6.184;2023-01-08T15:09:33;2.45;;;1.75;;
53052;SDS011;38934;52.690;6.184;2023-01-08T15:15:30;4.38;;;2.20;;
53052;SDS011;38934;52.690;6.184;2023-01-08T15:17:55;2.20;;;1.73;;
53052;SDS011;38934;52.690;6.184;2023-01-08T15:20:21;4.07;;;1.70;;
53052;SDS011;38934;52.690;6.184;2023-01-08T15:22:56;3.03;;;1.50;;
53052;SDS011;38934;52.690;6.184;2023-01-08T15:25:29;3.50;;;1.90;;
53052;SDS011;38934;52.690;6.184;2023-01-08T15:31:00;2.70;;;2.00;;
53052;SDS011;38934;52.690;6.184;2023-01-08T15:33:27;3.50;;;1.77;;
53052;SDS011;38934;52.690;6.184;2023-01-08T15:35:55;4.28;;;2.28;;
53052;SDS011;38934;52.690;6.184;2023-01-08T15:38:21;4.65;;;2.70;;
53052;SDS011;38934;52.690;6.184;2023-01-08T15:40:48;5.47;;;2.38;;
53052;SDS011;38934;52.690;6.184;2023-01-08T15:43:16;3.35;;;1.95;;
53052;SDS011;38934;52.690;6.184;2023-01-08T15:45:55;2.55;;;1.92;;
53052;SDS011;38934;52.690;6.184;2023-01-08T15:48:22;4.53;;;2.40;;
53052;SDS011;38934;52.690;6.184;2023-01-08T15:50:49;3.33;;;2.00;;
53052;SDS011;38934;52.690;6.184;2023-01-08T15:53:18;3.10;;;2.00;;
53052;SDS011;38934;52.690;6.184;2023-01-08T15:55:46;3.70;;;2.25;;
53052;SDS011;38934;52.690;6.184;2023-01-08T15:58:13;4.82;;;2.10;;
53052;SDS011;38934;52.690;6.184;2023-01-08T16:03:33;4.45;;;2.40;;
53052;SDS011;38934;52.690;6.184;2023-01-08T16:06:06;3.05;;;1.92;;
53052;SDS011;38934;52.690;6.184;2023-01-08T16:08:34;5.30;;;2.55;;
53052;SDS011;38934;52.690;6.184;2023-01-08T16:11:16;6.85;;;2.42;;
53052;SDS011;38934;52.690;6.184;2023-01-08T16:13:42;5.43;;;2.60;;
53052;SDS011;38934;52.690;6.184;2023-01-08T16:16:24;9.82;;;4.25;;
53052;SDS011;38934;52.690;6.184;2023-01-08T16:18:49;5.53;;;3.70;;
53052;SDS011;38934;52.690;6.184;2023-01-08T16:21:16;6.10;;;3.20;;
53052;SDS011;38934;52.690;6.184;2023-01-08T16:23:57;3.70;;;2.75;;
53052;SDS011;38934;52.690;6.184;2023-01-08T16:26:23;6.05;;;3.35;;
53052;SDS011;38934;52.690;6.184;2023-01-08T16:28:48;6.22;;;2.95;;
53052;SDS011;38934;52.690;6.184;2023-01-08T16:31:14;7.60;;;3.10;;
53052;SDS011;38934;52.690;6.184;2023-01-08T16:33:40;4.78;;;2.78;;
53052;SDS011;38934;52.690;6.184;2023-01-08T16:36:06;6.05;;;4.10;;
53052;SDS011;38934;52.690;6.184;2023-01-08T16:38:35;8.18;;;3.92;;
53052;SDS011;38934;52.690;6.184;2023-01-08T16:41:03;6.47;;;4.32;;
53052;SDS011;38934;52.690;6.184;2023-01-08T16:43:38;8.18;;;3.38;;
53052;SDS011;38934;52.690;6.184;2023-01-08T16:46:09;8.63;;;3.30;;
53052;SDS011;38934;52.690;6.184;2023-01-08T16:48:36;7.43;;;4.40;;
53052;SDS011;38934;52.690;6.184;2023-01-08T16:51:05;8.73;;;4.82;;
53052;SDS011;38934;52.690;6.184;2023-01-08T16:53:31;11.48;;;5.57;;
53052;SDS011;38934;52.690;6.184;2023-01-08T16:55:59;10.65;;;4.40;;
53052;SDS011;38934;52.690;6.184;2023-01-08T16:58:25;22.90;;;8.88;;
53052;SDS011;38934;52.690;6.184;2023-01-08T17:00:51;20.35;;;10.13;;
53052;SDS011;38934;52.690;6.184;2023-01-08T17:03:17;15.60;;;7.38;;
53052;SDS011;38934;52.690;6.184;2023-01-08T17:05:42;14.02;;;7.32;;
53052;SDS011;38934;52.690;6.184;2023-01-08T17:08:08;8.55;;;6.25;;
53052;SDS011;38934;52.690;6.184;2023-01-08T17:10:34;8.73;;;4.80;;
53052;SDS011;38934;52.690;6.184;2023-01-08T17:13:03;7.60;;;3.70;;
53052;SDS011;38934;52.690;6.184;2023-01-08T17:15:29;9.48;;;4.30;;
53052;SDS011;38934;52.690;6.184;2023-01-08T17:17:55;11.63;;;5.38;;
53052;SDS011;38934;52.690;6.184;2023-01-08T17:20:22;6.10;;;3.13;;
53052;SDS011;38934;52.690;6.184;2023-01-08T17:22:48;5.07;;;2.88;;
53052;SDS011;38934;52.690;6.184;2023-01-08T17:25:15;5.65;;;3.75;;
53052;SDS011;38934;52.690;6.184;2023-01-08T17:27:40;7.57;;;3.28;;
53052;SDS011;38934;52.690;6.184;2023-01-08T17:30:07;7.05;;;3.30;;
53052;SDS011;38934;52.690;6.184;2023-01-08T17:32:34;8.50;;;3.30;;
53052;SDS011;38934;52.690;6.184;2023-01-08T17:34:59;7.13;;;3.13;;
53052;SDS011;38934;52.690;6.184;2023-01-08T17:37:27;6.75;;;3.20;;
53052;SDS011;38934;52.690;6.184;2023-01-08T17:39:53;5.15;;;2.55;;
53052;SDS011;38934;52.690;6.184;2023-01-08T17:42:19;6.57;;;2.42;;
53052;SDS011;38934;52.690;6.184;2023-01-08T17:44:48;6.93;;;3.15;;
53052;SDS011;38934;52.690;6.184;2023-01-08T17:47:22;5.25;;;2.65;;
53052;SDS011;38934;52.690;6.184;2023-01-08T17:49:51;5.10;;;2.40;;
53052;SDS011;38934;52.690;6.184;2023-01-08T17:52:17;8.85;;;2.42;;
53052;SDS011;38934;52.690;6.184;2023-01-08T17:54:45;3.65;;;2.30;;
53052;SDS011;38934;52.690;6.184;2023-01-08T17:57:14;5.72;;;2.50;;
53052;SDS011;38934;52.690;6.184;2023-01-08T17:59:41;7.22;;;3.90;;
53052;SDS011;38934;52.690;6.184;2023-01-08T18:02:10;10.05;;;3.90;;
53052;SDS011;38934;52.690;6.184;2023-01-08T18:04:38;6.25;;;3.80;;
53052;SDS011;38934;52.690;6.184;2023-01-08T18:07:06;7.07;;;4.80;;
53052;SDS011;38934;52.690;6.184;2023-01-08T18:09:33;5.25;;;3.42;;
53052;SDS011;38934;52.690;6.184;2023-01-08T18:11:58;7.65;;;4.05;;
53052;SDS011;38934;52.690;6.184;2023-01-08T18:14:24;7.57;;;3.80;;
53052;SDS011;38934;52.690;6.184;2023-01-08T18:16:50;6.28;;;3.00;;
53052;SDS011;38934;52.690;6.184;2023-01-08T18:19:17;9.50;;;4.65;;
53052;SDS011;38934;52.690;6.184;2023-01-08T18:21:44;6.78;;;3.85;;
53052;SDS011;38934;52.690;6.184;2023-01-08T18:26:40;6.55;;;3.22;;
53052;SDS011;38934;52.690;6.184;2023-01-08T18:29:08;6.57;;;2.90;;
53052;SDS011;38934;52.690;6.184;2023-01-08T18:31:34;2.85;;;2.40;;
53052;SDS011;38934;52.690;6.184;2023-01-08T18:34:00;6.25;;;3.63;;
53052;SDS011;38934;52.690;6.184;2023-01-08T18:36:27;7.38;;;2.83;;
53052;SDS011;38934;52.690;6.184;2023-01-08T18:41:37;6.95;;;3.47;;
53052;SDS011;38934;52.690;6.184;2023-01-08T18:44:21;7.93;;;3.17;;
53052;SDS011;38934;52.690;6.184;2023-01-08T18:46:49;6.40;;;2.70;;
53052;SDS011;38934;52.690;6.184;2023-01-08T18:49:14;6.50;;;3.35;;
53052;SDS011;38934;52.690;6.184;2023-01-08T18:51:40;6.05;;;3.28;;
53052;SDS011;38934;52.690;6.184;2023-01-08T18:54:06;6.22;;;3.40;;
53052;SDS011;38934;52.690;6.184;2023-01-08T18:56:34;4.95;;;3.42;;
53052;SDS011;38934;52.690;6.184;2023-01-08T18:59:01;4.38;;;3.20;;
53052;SDS011;38934;52.690;6.184;2023-01-08T19:01:29;8.35;;;2.78;;
53052;SDS011;38934;52.690;6.184;2023-01-08T19:03:56;4.90;;;2.53;;
53052;SDS011;38934;52.690;6.184;2023-01-08T19:06:30;6.40;;;2.90;;
53052;SDS011;38934;52.690;6.184;2023-01-08T19:09:08;5.00;;;2.40;;
53052;SDS011;38934;52.690;6.184;2023-01-08T19:11:34;3.67;;;2.40;;
53052;SDS011;38934;52.690;6.184;2023-01-08T19:14:00;25.70;;;15.88;;
53052;SDS011;38934;52.690;6.184;2023-01-08T19:16:29;15.80;;;7.88;;
53052;SDS011;38934;52.690;6.184;2023-01-08T19:18:55;14.35;;;7.18;;
53052;SDS011;38934;52.690;6.184;2023-01-08T19:21:21;9.85;;;4.20;;
53052;SDS011;38934;52.690;6.184;2023-01-08T19:23:47;6.70;;;3.58;;
53052;SDS011;38934;52.690;6.184;2023-01-08T19:26:13;6.85;;;3.28;;
53052;SDS011;38934;52.690;6.184;2023-01-08T19:28:40;8.43;;;4.38;;
53052;SDS011;38934;52.690;6.184;2023-01-08T19:31:13;5.93;;;3.58;;
53052;SDS011;38934;52.690;6.184;2023-01-08T19:33:56;7.68;;;3.20;;
53052;SDS011;38934;52.690;6.184;2023-01-08T19:36:25;5.70;;;2.95;;